Time;durP1;ratioP1;P1;durP2;ratioP2;P2;SDS_P1;SDS_P2;PMS_P1;PMS_P2;Temp;Humidity;BMP_temperature;BMP_pressure;BME280_temperature;BME280_humidity;BME280_pressure;Samples;Min_cycle;Max_cycle;Signal;HPM_P1;HPM_P2
2023/08/09 00:02:01;;;;;;;5.93;2.17;;;;;;;;;;4979380;28;20027;-50
2023/08/09 00:04:27;;;;;;;3.10;2.20;;;;;;;;;;4994853;28;20097;-48
2023/08/09 00:06:52;;;;;;;3.97;2.20;;;;;;;;;;4994306;28;20109;-45
2023/08/09 00:09:20;;;;;;;3.70;2.10;;;;;;;;;;4992119;28;20030;-49
2023/08/09 00:11:45;;;;;;;2.67;2.10;;;;;;;;;;4985499;28;20143;-46
2023/08/09 00:14:10;;;;;;;3.75;2.53;;;;;;;;;;4980514;28;20077;-46
2023/08/09 00:16:36;;;;;;;4.15;2.17;;;;;;;;;;4995667;28;20034;-45
2023/08/09 00:19:01;;;;;;;7.35;2.47;;;;;;;;;;4983325;28;20054;-46
2023/08/09 00:21:28;;;;;;;6.60;2.40;;;;;;;;;;4988019;28;20077;-45
2023/08/09 00:23:53;;;;;;;7.00;2.40;;;;;;;;;;4994533;28;20043;-46
2023/08/09 00:26:19;;;;;;;3.75;2.17;;;;;;;;;;4993866;28;20041;-49
2023/08/09 00:28:44;;;;;;;5.95;2.58;;;;;;;;;;4993824;28;20045;-47
2023/08/09 00:31:10;;;;;;;6.75;2.75;;;;;;;;;;4992096;28;20507;-46
2023/08/09 00:33:35;;;;;;;7.68;2.60;;;;;;;;;;4997854;28;20518;-45
2023/08/09 00:36:01;;;;;;;7.25;2.28;;;;;;;;;;4997905;28;20082;-45
2023/08/09 00:38:27;;;;;;;4.22;2.40;;;;;;;;;;4967771;28;20045;-46
2023/08/09 00:40:52;;;;;;;5.55;2.00;;;;;;;;;;4990869;28;20026;-48
2023/08/09 00:43:17;;;;;;;8.00;2.55;;;;;;;;;;5004423;28;20116;-46
2023/08/09 00:45:45;;;;;;;3.75;2.40;;;;;;;;;;4993428;28;20038;-46
2023/08/09 00:48:11;;;;;;;4.32;2.22;;;;;;;;;;4988917;28;20806;-46
2023/08/09 00:50:36;;;;;;;4.53;2.28;;;;;;;;;;4998088;28;20053;-48
2023/08/09 00:53:02;;;;;;;3.83;2.35;;;;;;;;;;4985259;28;20049;-46
2023/08/09 00:55:27;;;;;;;4.03;2.38;;;;;;;;;;4992343;28;20014;-47
2023/08/09 00:57:53;;;;;;;3.83;2.30;;;;;;;;;;4987788;28;20042;-45
2023/08/09 01:00:19;;;;;;;6.13;2.25;;;;;;;;;;4990788;28;20113;-47
2023/08/09 01:02:44;;;;;;;8.05;2.53;;;;;;;;;;4998414;28;20030;-52
2023/08/09 01:05:11;;;;;;;5.95;2.35;;;;;;;;;;4996482;28;20396;-48
2023/08/09 01:07:53;;;;;;;3.90;2.38;;;;;;;;;;4997529;28;20452;-48
2023/08/09 01:10:31;;;;;;;3.40;2.10;;;;;;;;;;4986906;28;20081;-46
2023/08/09 01:13:01;;;;;;;3.00;2.65;;;;;;;;;;4992799;28;20046;-46
2023/08/09 01:15:27;;;;;;;4.22;2.35;;;;;;;;;;4994506;28;20038;-47
2023/08/09 01:17:55;;;;;;;6.47;3.20;;;;;;;;;;4994568;28;20047;-46
2023/08/09 01:20:22;;;;;;;8.25;2.88;;;;;;;;;;4989751;28;20023;-46
2023/08/09 01:23:20;;;;;;;6.22;2.30;;;;;;;;;;4997640;28;20053;-47
2023/08/09 01:25:46;;;;;;;3.60;2.58;;;;;;;;;;4996106;28;20451;-47
2023/08/09 01:28:16;;;;;;;9.82;2.60;;;;;;;;;;4989287;28;20042;-46
2023/08/09 01:30:41;;;;;;;7.50;2.83;;;;;;;;;;4982336;28;20053;-47
2023/08/09 01:33:07;;;;;;;3.55;2.15;;;;;;;;;;4979752;28;20035;-50
2023/08/09 01:35:36;;;;;;;5.80;2.63;;;;;;;;;;4986690;28;20030;-46
2023/08/09 01:38:08;;;;;;;9.57;3.22;;;;;;;;;;4995326;28;20039;-48
2023/08/09 01:40:34;;;;;;;2.72;2.45;;;;;;;;;;4986103;28;20031;-46
2023/08/09 01:43:00;;;;;;;4.00;2.78;;;;;;;;;;4983582;28;20070;-48
2023/08/09 01:45:26;;;;;;;5.53;2.78;;;;;;;;;;4985969;28;20041;-47
2023/08/09 01:47:52;;;;;;;10.43;2.65;;;;;;;;;;4995879;28;20558;-49
2023/08/09 01:50:25;;;;;;;6.75;2.22;;;;;;;;;;4995962;28;20431;-46
2023/08/09 01:52:58;;;;;;;7.63;2.30;;;;;;;;;;4994726;28;20034;-47
2023/08/09 01:55:25;;;;;;;6.72;2.97;;;;;;;;;;4987968;28;20066;-48
2023/08/09 01:57:51;;;;;;;6.93;2.33;;;;;;;;;;4995416;28;20038;-48
2023/08/09 02:00:19;;;;;;;4.18;2.60;;;;;;;;;;4992661;28;20026;-45
2023/08/09 02:02:45;;;;;;;4.00;2.35;;;;;;;;;;4995296;28;20096;-46
2023/08/09 02:05:11;;;;;;;7.22;2.50;;;;;;;;;;4995687;28;20054;-48
2023/08/09 02:07:37;;;;;;;7.00;2.70;;;;;;;;;;4995137;28;20042;-46
2023/08/09 02:10:03;;;;;;;6.38;2.50;;;;;;;;;;4985210;28;20033;-50
2023/08/09 02:12:28;;;;;;;7.03;2.45;;;;;;;;;;4987253;28;20119;-46
2023/08/09 02:14:55;;;;;;;9.43;2.50;;;;;;;;;;4995392;28;20492;-46
2023/08/09 02:17:21;;;;;;;4.63;2.38;;;;;;;;;;4985095;28;20531;-45
2023/08/09 02:19:47;;;;;;;5.95;2.40;;;;;;;;;;4991366;28;20113;-47
2023/08/09 02:22:19;;;;;;;6.72;2.33;;;;;;;;;;4996840;28;20109;-49
2023/08/09 02:24:45;;;;;;;;;;;;;;;;;;4975836;28;20042;-46
2023/08/09 02:27:10;;;;;;;3.63;2.20;;;;;;;;;;4995284;28;19977;-48
2023/08/09 02:29:36;;;;;;;5.97;2.42;;;;;;;;;;4991408;28;20022;-47
2023/08/09 02:32:02;;;;;;;5.78;2.10;;;;;;;;;;4991089;28;20034;-46
2023/08/09 02:34:28;;;;;;;3.65;2.35;;;;;;;;;;4986801;28;20039;-48
2023/08/09 02:36:54;;;;;;;4.65;2.45;;;;;;;;;;4979798;28;20121;-46
2023/08/09 02:39:20;;;;;;;4.00;2.13;;;;;;;;;;4991499;28;20048;-45
2023/08/09 02:41:47;;;;;;;5.35;2.38;;;;;;;;;;4992010;28;20058;-49
2023/08/09 02:44:12;;;;;;;4.72;2.55;;;;;;;;;;4984494;28;20039;-47
2023/08/09 02:46:38;;;;;;;3.92;2.50;;;;;;;;;;4987442;28;20022;-47
2023/08/09 02:49:03;;;;;;;4.47;2.67;;;;;;;;;;4987788;28;20564;-49
2023/08/09 02:51:29;;;;;;;7.70;2.35;;;;;;;;;;4994074;28;20034;-47
2023/08/09 02:54:02;;;;;;;6.25;2.20;;;;;;;;;;4988983;28;20047;-46
2023/08/09 02:56:29;;;;;;;4.70;2.17;;;;;;;;;;4986217;28;20473;-49
2023/08/09 02:58:55;;;;;;;7.97;2.60;;;;;;;;;;4994473;28;20258;-48
2023/08/09 03:01:23;;;;;;;4.65;2.15;;;;;;;;;;4992520;28;20109;-47
2023/08/09 03:03:50;;;;;;;5.10;2.95;;;;;;;;;;4990517;28;20066;-48
2023/08/09 03:06:17;;;;;;;4.93;2.40;;;;;;;;;;4992198;28;20511;-46
2023/08/09 03:08:44;;;;;;;3.83;2.65;;;;;;;;;;4986228;28;20030;-50
2023/08/09 03:11:09;;;;;;;5.63;2.30;;;;;;;;;;4985389;28;20477;-46
2023/08/09 03:13:34;;;;;;;3.72;2.20;;;;;;;;;;4990989;28;20061;-47
2023/08/09 03:16:00;;;;;;;6.63;2.30;;;;;;;;;;4983927;28;20030;-45
2023/08/09 03:18:25;;;;;;;6.88;2.55;;;;;;;;;;4981223;28;20078;-47
2023/08/09 03:20:52;;;;;;;5.55;2.40;;;;;;;;;;4984493;28;20054;-48
2023/08/09 03:23:18;;;;;;;3.83;2.30;;;;;;;;;;4991854;28;20133;-47
2023/08/09 03:25:43;;;;;;;4.68;2.58;;;;;;;;;;4990008;28;20030;-45
2023/08/09 03:28:09;;;;;;;3.47;2.20;;;;;;;;;;4983655;28;20382;-48
2023/08/09 03:30:34;;;;;;;5.10;2.80;;;;;;;;;;4983838;28;20536;-47
2023/08/09 03:33:00;;;;;;;4.85;2.00;;;;;;;;;;4978391;28;20038;-46
2023/08/09 03:35:25;;;;;;;6.07;2.38;;;;;;;;;;4977836;28;20539;-45
2023/08/09 03:37:51;;;;;;;5.07;2.38;;;;;;;;;;4994295;28;20116;-46
2023/08/09 03:40:16;;;;;;;4.72;2.10;;;;;;;;;;4990713;28;20035;-47
2023/08/09 03:42:42;;;;;;;4.32;2.28;;;;;;;;;;4981700;28;20073;-47
2023/08/09 03:45:08;;;;;;;5.32;2.42;;;;;;;;;;4983951;28;20038;-46
2023/08/09 03:47:36;;;;;;;2.72;2.20;;;;;;;;;;4992917;28;20049;-46
2023/08/09 03:50:03;;;;;;;4.85;2.25;;;;;;;;;;4993734;28;20030;-47
2023/08/09 03:52:28;;;;;;;6.03;2.30;;;;;;;;;;4992379;28;20054;-45
2023/08/09 03:54:55;;;;;;;9.80;2.70;;;;;;;;;;4992413;28;20035;-49
2023/08/09 03:57:21;;;;;;;4.95;2.60;;;;;;;;;;4993152;28;20030;-45
2023/08/09 03:59:49;;;;;;;8.65;2.70;;;;;;;;;;4990195;28;20034;-49
2023/08/09 04:02:14;;;;;;;5.78;3.00;;;;;;;;;;4990041;28;20084;-50
2023/08/09 04:04:40;;;;;;;4.88;2.40;;;;;;;;;;4992403;28;20520;-47
2023/08/09 04:07:06;;;;;;;7.28;2.47;;;;;;;;;;4994978;28;20041;-45
2023/08/09 04:09:32;;;;;;;3.33;2.40;;;;;;;;;;4995629;28;20034;-46
2023/08/09 04:11:59;;;;;;;3.42;2.38;;;;;;;;;;4983089;28;20030;-46
2023/08/09 04:14:25;;;;;;;7.05;2.42;;;;;;;;;;4992826;28;20045;-46
2023/08/09 04:16:51;;;;;;;8.85;2.80;;;;;;;;;;4979783;28;20118;-46
2023/08/09 04:19:16;;;;;;;6.47;2.75;;;;;;;;;;4993177;28;20066;-49
2023/08/09 04:21:42;;;;;;;3.38;2.35;;;;;;;;;;4991929;28;20092;-46
2023/08/09 04:24:09;;;;;;;3.67;2.40;;;;;;;;;;4989746;28;20057;-48
2023/08/09 04:26:35;;;;;;;4.65;2.65;;;;;;;;;;4997180;28;20085;-47
2023/08/09 04:29:01;;;;;;;7.90;2.63;;;;;;;;;;4992731;28;20046;-47
2023/08/09 04:31:26;;;;;;;4.43;2.42;;;;;;;;;;4981569;28;20042;-45
2023/08/09 04:33:52;;;;;;;4.95;2.67;;;;;;;;;;4992587;28;20045;-46
2023/08/09 04:36:18;;;;;;;5.15;2.58;;;;;;;;;;4985427;28;20047;-45
2023/08/09 04:38:44;;;;;;;6.93;2.40;;;;;;;;;;4997715;28;20046;-50
2023/08/09 04:41:10;;;;;;;6.55;2.88;;;;;;;;;;4995070;28;20476;-47
2023/08/09 04:43:39;;;;;;;6.18;2.33;;;;;;;;;;4991575;28;20046;-46
2023/08/09 04:46:05;;;;;;;5.50;2.78;;;;;;;;;;4991388;28;20046;-48
2023/08/09 04:48:30;;;;;;;11.57;2.80;;;;;;;;;;4987317;28;20034;-48
2023/08/09 04:50:56;;;;;;;6.80;2.67;;;;;;;;;;4956538;28;20456;-47
2023/08/09 04:53:22;;;;;;;8.63;2.88;;;;;;;;;;4979279;28;20513;-47
2023/08/09 04:55:47;;;;;;;5.75;2.70;;;;;;;;;;4979524;28;20073;-46
2023/08/09 04:58:13;;;;;;;7.18;2.75;;;;;;;;;;4999015;28;20046;-48
2023/08/09 05:00:38;;;;;;;13.65;2.70;;;;;;;;;;4989413;28;20031;-46
2023/08/09 05:03:05;;;;;;;12.50;4.35;;;;;;;;;;4980980;28;20047;-45
2023/08/09 05:05:30;;;;;;;7.28;2.80;;;;;;;;;;5009150;28;20030;-47
2023/08/09 05:07:56;;;;;;;4.55;2.20;;;;;;;;;;4984637;28;20551;-49
2023/08/09 05:10:22;;;;;;;6.97;2.60;;;;;;;;;;4996799;28;20027;-46
2023/08/09 05:12:47;;;;;;;8.35;2.83;;;;;;;;;;4983332;28;20053;-47
2023/08/09 05:15:13;;;;;;;5.50;2.85;;;;;;;;;;4995514;28;20030;-49
2023/08/09 05:17:38;;;;;;;6.22;2.53;;;;;;;;;;4996728;28;20036;-46
2023/08/09 05:20:04;;;;;;;7.82;2.40;;;;;;;;;;4977340;28;20034;-46
2023/08/09 05:22:30;;;;;;;6.97;2.75;;;;;;;;;;4990797;28;20410;-48
2023/08/09 05:24:55;;;;;;;4.32;3.03;;;;;;;;;;4982541;28;20035;-48
2023/08/09 05:27:21;;;;;;;8.98;2.88;;;;;;;;;;4992497;28;20031;-49
2023/08/09 05:29:46;;;;;;;6.68;2.90;;;;;;;;;;4983977;28;20049;-50
2023/08/09 05:32:11;;;;;;;4.40;2.80;;;;;;;;;;4990196;28;20043;-46
2023/08/09 05:34:37;;;;;;;8.27;2.50;;;;;;;;;;4990920;28;20061;-47
2023/08/09 05:37:03;;;;;;;11.55;3.28;;;;;;;;;;4989534;28;20050;-48
2023/08/09 05:39:28;;;;;;;5.57;2.67;;;;;;;;;;4994964;28;20074;-47
2023/08/09 05:41:54;;;;;;;4.88;2.60;;;;;;;;;;4989929;28;20362;-47
2023/08/09 05:44:19;;;;;;;5.00;2.75;;;;;;;;;;4995280;28;20054;-48
2023/08/09 05:46:45;;;;;;;5.75;2.67;;;;;;;;;;4989619;28;20088;-47
2023/08/09 05:49:10;;;;;;;8.73;2.80;;;;;;;;;;4989197;28;20556;-49
2023/08/09 05:51:36;;;;;;;8.10;3.10;;;;;;;;;;5005001;28;20039;-48
2023/08/09 05:54:02;;;;;;;7.03;2.70;;;;;;;;;;5007485;28;20035;-47
2023/08/09 05:56:27;;;;;;;9.07;3.10;;;;;;;;;;4979092;28;20096;-48
2023/08/09 05:58:52;;;;;;;9.05;2.70;;;;;;;;;;4985938;28;20049;-46
2023/08/09 06:01:18;;;;;;;8.00;2.60;;;;;;;;;;4996293;28;20022;-49
2023/08/09 06:03:43;;;;;;;6.75;3.17;;;;;;;;;;4991223;28;20047;-46
2023/08/09 06:06:13;;;;;;;6.43;2.95;;;;;;;;;;4989521;28;20480;-48
2023/08/09 06:08:39;;;;;;;11.85;2.70;;;;;;;;;;4997485;28;20034;-45
2023/08/09 06:11:04;;;;;;;4.15;2.70;;;;;;;;;;4989647;28;20027;-45
2023/08/09 06:13:30;;;;;;;5.35;3.38;;;;;;;;;;4977522;28;20563;-46
2023/08/09 06:15:56;;;;;;;7.65;3.10;;;;;;;;;;4983839;28;20057;-48
2023/08/09 06:18:22;;;;;;;9.25;3.28;;;;;;;;;;4996182;28;20042;-47
2023/08/09 06:20:48;;;;;;;5.53;2.90;;;;;;;;;;4989955;28;20049;-47
2023/08/09 06:23:14;;;;;;;13.55;3.30;;;;;;;;;;4980609;28;20051;-46
2023/08/09 06:25:40;;;;;;;5.25;2.95;;;;;;;;;;4992125;28;20030;-47
2023/08/09 06:28:06;;;;;;;9.57;3.45;;;;;;;;;;4988364;28;20057;-46
2023/08/09 06:30:32;;;;;;;10.80;3.33;;;;;;;;;;4990861;28;20030;-46
2023/08/09 06:32:57;;;;;;;6.28;3.50;;;;;;;;;;4982086;28;20054;-46
2023/08/09 06:35:23;;;;;;;12.65;3.40;;;;;;;;;;4992806;28;20037;-46
2023/08/09 06:37:50;;;;;;;6.63;2.63;;;;;;;;;;4995039;28;20568;-48
2023/08/09 06:40:16;;;;;;;10.38;3.83;;;;;;;;;;4986614;28;20057;-47
2023/08/09 06:42:43;;;;;;;10.73;3.15;;;;;;;;;;4985626;28;20461;-45
2023/08/09 06:45:09;;;;;;;7.53;3.47;;;;;;;;;;4993176;28;20022;-46
2023/08/09 06:47:34;;;;;;;10.18;2.97;;;;;;;;;;4996828;28;20492;-48
2023/08/09 06:50:00;;;;;;;7.72;3.17;;;;;;;;;;4980509;28;20054;-46
2023/08/09 06:52:27;;;;;;;9.48;2.58;;;;;;;;;;4995824;28;20424;-47
2023/08/09 06:54:52;;;;;;;7.32;3.00;;;;;;;;;;4982394;28;20057;-47
2023/08/09 06:57:18;;;;;;;6.93;3.17;;;;;;;;;;4994592;28;20038;-44
2023/08/09 06:59:43;;;;;;;7.22;3.22;;;;;;;;;;4983574;28;20109;-49
2023/08/09 07:02:10;;;;;;;15.50;3.50;;;;;;;;;;4990665;28;20030;-45
2023/08/09 07:04:36;;;;;;;7.43;3.00;;;;;;;;;;4993082;28;20010;-47
2023/08/09 07:07:02;;;;;;;5.72;2.92;;;;;;;;;;4988479;28;20035;-47
2023/08/09 07:09:27;;;;;;;11.10;3.30;;;;;;;;;;4995101;28;20444;-45
2023/08/09 07:11:53;;;;;;;8.57;3.20;;;;;;;;;;4983627;28;20074;-47
2023/08/09 07:14:18;;;;;;;13.18;3.40;;;;;;;;;;4979629;28;20045;-52
2023/08/09 07:16:43;;;;;;;16.75;3.63;;;;;;;;;;4980034;28;20034;-47
2023/08/09 07:19:10;;;;;;;6.95;2.83;;;;;;;;;;4987928;28;20510;-45
2023/08/09 07:21:35;;;;;;;14.25;3.17;;;;;;;;;;4989490;28;20014;-49
2023/08/09 07:24:01;;;;;;;10.18;3.40;;;;;;;;;;4994444;28;20056;-45
2023/08/09 07:26:26;;;;;;;5.60;2.75;;;;;;;;;;4986757;28;20030;-47
2023/08/09 07:28:52;;;;;;;7.35;3.10;;;;;;;;;;4993046;28;20043;-46
2023/08/09 07:31:23;;;;;;;7.38;2.95;;;;;;;;;;4996223;28;20116;-49
2023/08/09 07:33:49;;;;;;;9.45;3.25;;;;;;;;;;4978110;28;20046;-46
2023/08/09 07:36:15;;;;;;;10.18;3.15;;;;;;;;;;4994490;28;20050;-48
2023/08/09 07:38:41;;;;;;;8.40;3.22;;;;;;;;;;4973593;28;20208;-49
2023/08/09 07:41:07;;;;;;;13.45;3.20;;;;;;;;;;4990494;28;20030;-46
2023/08/09 07:43:33;;;;;;;9.25;3.30;;;;;;;;;;4992664;28;20554;-47
2023/08/09 07:45:58;;;;;;;10.00;3.60;;;;;;;;;;4988718;28;20027;-47
2023/08/09 07:48:25;;;;;;;16.80;4.13;;;;;;;;;;4994746;28;20045;-50
2023/08/09 07:50:50;;;;;;;11.68;3.75;;;;;;;;;;5000646;28;20078;-46
2023/08/09 07:53:16;;;;;;;11.75;3.92;;;;;;;;;;4992259;28;20489;-45
2023/08/09 07:55:41;;;;;;;14.63;4.05;;;;;;;;;;4984731;28;20110;-47
2023/08/09 07:58:07;;;;;;;8.55;3.92;;;;;;;;;;4994452;28;20041;-45
2023/08/09 08:00:33;;;;;;;12.40;3.45;;;;;;;;;;4995101;28;20030;-47
2023/08/09 08:02:59;;;;;;;18.05;3.60;;;;;;;;;;4998653;28;20049;-47
2023/08/09 08:05:25;;;;;;;9.75;3.60;;;;;;;;;;4997387;28;20022;-49
2023/08/09 08:07:50;;;;;;;8.52;3.92;;;;;;;;;;4985587;28;20505;-46
2023/08/09 08:10:16;;;;;;;12.70;4.10;;;;;;;;;;4985403;28;20049;-47
2023/08/09 08:12:44;;;;;;;8.10;3.55;;;;;;;;;;4995050;28;20046;-47
2023/08/09 08:15:10;;;;;;;17.83;4.15;;;;;;;;;;4997779;28;20105;-48
2023/08/09 08:17:35;;;;;;;12.32;3.65;;;;;;;;;;4991066;28;20061;-46
2023/08/09 08:20:06;;;;;;;8.30;3.80;;;;;;;;;;4998360;28;20030;-48
2023/08/09 08:22:31;;;;;;;10.23;3.83;;;;;;;;;;4989290;28;20073;-50
2023/08/09 08:24:57;;;;;;;7.95;3.40;;;;;;;;;;4988117;28;20684;-48
2023/08/09 08:27:22;;;;;;;9.00;3.40;;;;;;;;;;4994638;28;20063;-46
2023/08/09 08:29:47;;;;;;;12.27;3.63;;;;;;;;;;4989520;28;20037;-46
2023/08/09 08:32:13;;;;;;;10.65;3.25;;;;;;;;;;4997525;28;20022;-46
2023/08/09 08:34:38;;;;;;;9.98;3.47;;;;;;;;;;4995208;28;20058;-46
2023/08/09 08:37:07;;;;;;;14.32;3.78;;;;;;;;;;4992159;28;20485;-48
2023/08/09 08:39:36;;;;;;;12.43;3.83;;;;;;;;;;4995449;28;20050;-46
2023/08/09 08:42:02;;;;;;;7.63;3.22;;;;;;;;;;4986647;28;20035;-46
2023/08/09 08:44:27;;;;;;;10.45;3.95;;;;;;;;;;4985988;28;20053;-48
2023/08/09 08:46:53;;;;;;;15.70;3.38;;;;;;;;;;4994210;28;20038;-46
2023/08/09 08:49:24;;;;;;;9.10;4.07;;;;;;;;;;4998839;28;20031;-46
2023/08/09 08:51:53;;;;;;;6.18;2.83;;;;;;;;;;4982824;28;20118;-49
2023/08/09 08:54:19;;;;;;;12.80;3.15;;;;;;;;;;4980504;28;20038;-48
2023/08/09 08:56:45;;;;;;;9.80;3.05;;;;;;;;;;4998232;28;20026;-46
2023/08/09 08:59:11;;;;;;;6.35;3.05;;;;;;;;;;4980077;28;20046;-47
2023/08/09 09:01:37;;;;;;;4.03;2.22;;;;;;;;;;4987420;28;20110;-48
2023/08/09 09:04:03;;;;;;;9.10;2.70;;;;;;;;;;4966373;28;20523;-46
2023/08/09 09:06:28;;;;;;;9.60;1.90;;;;;;;;;;4994292;28;20026;-46
2023/08/09 09:08:58;;;;;;;2.55;1.88;;;;;;;;;;4954667;28;20515;-47
2023/08/09 09:11:24;;;;;;;3.75;1.75;;;;;;;;;;4991099;28;20046;-48
2023/08/09 09:13:50;;;;;;;5.75;1.92;;;;;;;;;;4978887;28;20047;-46
2023/08/09 09:16:18;;;;;;;2.72;1.75;;;;;;;;;;4988814;28;20026;-46
2023/08/09 09:18:46;;;;;;;4.75;1.60;;;;;;;;;;4995748;28;20467;-46
2023/08/09 09:21:13;;;;;;;8.02;2.03;;;;;;;;;;4995879;28;20034;-48
2023/08/09 09:23:39;;;;;;;4.22;1.77;;;;;;;;;;4992004;28;20062;-46
2023/08/09 09:26:08;;;;;;;5.13;1.63;;;;;;;;;;4997573;28;20068;-46
2023/08/09 09:28:42;;;;;;;3.72;1.80;;;;;;;;;;4998395;28;20046;-45
2023/08/09 09:31:13;;;;;;;5.30;1.52;;;;;;;;;;4987905;28;20543;-46
2023/08/09 09:33:43;;;;;;;2.53;1.33;;;;;;;;;;4984047;28;20092;-46
2023/08/09 09:36:12;;;;;;;2.00;1.73;;;;;;;;;;4984809;28;20086;-46
2023/08/09 09:38:39;;;;;;;4.53;1.80;;;;;;;;;;4978627;28;20102;-49
2023/08/09 09:41:07;;;;;;;3.65;1.65;;;;;;;;;;4983276;28;20034;-46
2023/08/09 09:43:33;;;;;;;4.57;1.48;;;;;;;;;;4980445;28;20129;-49
2023/08/09 09:46:00;;;;;;;4.85;1.83;;;;;;;;;;4985562;28;20037;-47
2023/08/09 09:48:26;;;;;;;2.42;1.50;;;;;;;;;;4994709;28;20069;-49
2023/08/09 09:50:52;;;;;;;1.52;1.27;;;;;;;;;;4988116;28;20034;-46
2023/08/09 09:53:18;;;;;;;1.88;1.60;;;;;;;;;;4995481;28;20664;-48
2023/08/09 09:55:46;;;;;;;5.85;1.35;;;;;;;;;;4994811;28;20457;-51
2023/08/09 09:58:14;;;;;;;4.28;1.58;;;;;;;;;;4997491;28;20038;-49
2023/08/09 10:00:46;;;;;;;1.40;1.30;;;;;;;;;;4997429;28;20031;-47
2023/08/09 10:03:13;;;;;;;2.35;1.20;;;;;;;;;;4984357;28;20179;-47
2023/08/09 10:05:45;;;;;;;1.15;1.15;;;;;;;;;;5005327;28;20033;-48
2023/08/09 10:08:12;;;;;;;3.88;1.25;;;;;;;;;;4976930;28;20039;-49
2023/08/09 10:10:39;;;;;;;6.78;1.60;;;;;;;;;;4989479;28;20022;-47
2023/08/09 10:13:07;;;;;;;2.67;1.23;;;;;;;;;;4994592;28;20130;-46
2023/08/09 10:15:38;;;;;;;1.85;1.30;;;;;;;;;;4992436;28;20027;-47
2023/08/09 10:18:10;;;;;;;1.15;1.05;;;;;;;;;;4991145;28;20034;-45
2023/08/09 10:20:38;;;;;;;2.97;1.25;;;;;;;;;;4996982;28;20041;-46
2023/08/09 10:23:04;;;;;;;2.08;1.10;;;;;;;;;;4992569;28;20034;-47
2023/08/09 10:25:46;;;;;;;1.45;1.30;;;;;;;;;;4993562;28;20031;-46
2023/08/09 10:28:11;;;;;;;2.95;1.20;;;;;;;;;;4989367;28;20042;-47
2023/08/09 10:30:48;;;;;;;3.63;1.30;;;;;;;;;;4977450;28;20066;-47
2023/08/09 10:33:18;;;;;;;2.45;1.40;;;;;;;;;;4991583;28;20056;-46
2023/08/09 10:35:44;;;;;;;1.50;1.25;;;;;;;;;;4994170;28;20054;-51
2023/08/09 10:38:19;;;;;;;3.08;1.27;;;;;;;;;;4990607;28;20141;-48
2023/08/09 10:40:51;;;;;;;3.20;1.10;;;;;;;;;;4986433;28;20373;-47
2023/08/09 10:43:20;;;;;;;2.63;1.20;;;;;;;;;;4972830;28;20093;-47
2023/08/09 10:45:46;;;;;;;5.07;1.35;;;;;;;;;;4993077;28;20022;-46
2023/08/09 10:48:24;;;;;;;1.48;1.17;;;;;;;;;;4994987;28;20066;-49
2023/08/09 10:51:02;;;;;;;2.13;1.23;;;;;;;;;;4987011;28;20023;-48
2023/08/09 10:53:28;;;;;;;0.93;0.90;;;;;;;;;;4982165;28;20050;-46
2023/08/09 10:55:59;;;;;;;0.95;0.95;;;;;;;;;;4988570;28;20030;-47
2023/08/09 10:58:30;;;;;;;;;;;;;;;;;;4987835;28;20131;-49
2023/08/09 11:00:56;;;;;;;4.03;1.10;;;;;;;;;;4994879;28;19918;-46
2023/08/09 11:03:22;;;;;;;2.65;1.65;;;;;;;;;;4988935;28;20042;-46
2023/08/09 11:05:47;;;;;;;1.10;1.10;;;;;;;;;;4981164;28;20089;-46
2023/08/09 11:08:17;;;;;;;1.30;1.20;;;;;;;;;;4986431;28;20030;-47
2023/08/09 11:10:44;;;;;;;3.05;1.42;;;;;;;;;;4982085;28;20030;-48
2023/08/09 11:13:12;;;;;;;7.40;1.38;;;;;;;;;;4981587;28;20130;-50
2023/08/09 11:15:42;;;;;;;5.80;1.10;;;;;;;;;;4989755;28;20113;-48
2023/08/09 11:18:07;;;;;;;5.60;1.38;;;;;;;;;;4991857;28;20035;-47
2023/08/09 11:20:34;;;;;;;1.85;1.23;;;;;;;;;;4986314;28;20438;-46
2023/08/09 11:23:00;;;;;;;1.25;1.15;;;;;;;;;;4991874;28;20030;-48
2023/08/09 11:25:28;;;;;;;2.60;1.00;;;;;;;;;;4992505;28;20373;-46
2023/08/09 11:27:55;;;;;;;6.13;1.35;;;;;;;;;;4994680;28;20519;-49
2023/08/09 11:30:21;;;;;;;4.95;1.27;;;;;;;;;;4981625;28;20049;-45
2023/08/09 11:32:58;;;;;;;0.85;0.85;;;;;;;;;;4995770;28;20046;-46
2023/08/09 11:35:32;;;;;;;2.67;1.00;;;;;;;;;;4978071;28;20035;-46
2023/08/09 11:37:58;;;;;;;3.15;1.20;;;;;;;;;;4975220;28;20113;-46
2023/08/09 11:40:24;;;;;;;1.15;1.05;;;;;;;;;;4975498;28;20113;-47
2023/08/09 11:42:58;;;;;;;1.60;0.65;;;;;;;;;;4981516;28;20054;-46
2023/08/09 11:45:24;;;;;;;0.88;0.63;;;;;;;;;;4976887;28;20077;-46
2023/08/09 11:47:54;;;;;;;2.42;0.95;;;;;;;;;;4981852;28;20047;-47
2023/08/09 11:50:24;;;;;;;1.70;1.00;;;;;;;;;;4993960;28;20109;-46
2023/08/09 11:52:53;;;;;;;5.43;0.90;;;;;;;;;;4995424;28;20062;-47
2023/08/09 11:55:19;;;;;;;2.35;1.25;;;;;;;;;;4993901;28;20117;-46
2023/08/09 11:57:45;;;;;;;3.10;0.80;;;;;;;;;;4995027;28;20066;-48
2023/08/09 12:00:11;;;;;;;2.10;1.02;;;;;;;;;;4988790;28;20396;-48
2023/08/09 12:02:36;;;;;;;1.30;0.90;;;;;;;;;;4991390;28;20042;-46
2023/08/09 12:05:11;;;;;;;7.68;1.10;;;;;;;;;;4983427;28;20027;-46
2023/08/09 12:07:36;;;;;;;2.58;1.08;;;;;;;;;;4989109;28;20042;-48
2023/08/09 12:10:03;;;;;;;1.70;1.10;;;;;;;;;;5009813;28;20041;-47
2023/08/09 12:12:39;;;;;;;1.42;1.00;;;;;;;;;;4993871;28;20050;-46
2023/08/09 12:15:05;;;;;;;2.05;1.00;;;;;;;;;;4996321;28;20438;-46
2023/08/09 12:17:31;;;;;;;3.90;0.98;;;;;;;;;;4988839;28;20034;-47
2023/08/09 12:20:02;;;;;;;2.63;1.20;;;;;;;;;;4981092;28;20217;-45
2023/08/09 12:22:28;;;;;;;2.78;1.30;;;;;;;;;;4991904;28;20039;-48
2023/08/09 12:24:55;;;;;;;3.03;1.17;;;;;;;;;;4986059;28;20162;-49
2023/08/09 12:27:21;;;;;;;2.75;1.20;;;;;;;;;;4984156;28;20039;-46
2023/08/09 12:29:47;;;;;;;3.50;1.30;;;;;;;;;;4985354;28;20362;-47
2023/08/09 12:32:13;;;;;;;2.15;1.20;;;;;;;;;;4996321;28;20126;-45
2023/08/09 12:34:38;;;;;;;1.42;0.95;;;;;;;;;;4999277;28;20580;-48
2023/08/09 12:37:05;;;;;;;1.65;0.90;;;;;;;;;;4991217;28;20074;-43
2023/08/09 12:39:31;;;;;;;2.58;0.98;;;;;;;;;;4987707;28;20031;-47
2023/08/09 12:41:57;;;;;;;1.45;1.27;;;;;;;;;;4986911;28;20138;-46
2023/08/09 12:44:23;;;;;;;3.33;1.10;;;;;;;;;;4990846;28;20044;-46
2023/08/09 12:46:49;;;;;;;1.38;1.17;;;;;;;;;;4993086;28;20112;-47
2023/08/09 12:49:14;;;;;;;6.40;1.20;;;;;;;;;;4996667;28;20121;-46
2023/08/09 12:51:39;;;;;;;3.03;1.30;;;;;;;;;;4986671;28;20030;-46
2023/08/09 12:54:06;;;;;;;3.03;1.20;;;;;;;;;;4996718;28;20070;-46
2023/08/09 12:56:31;;;;;;;1.63;1.30;;;;;;;;;;4993772;28;20030;-48
2023/08/09 12:58:57;;;;;;;6.28;1.40;;;;;;;;;;4996446;28;20125;-48
2023/08/09 13:01:23;;;;;;;4.93;1.50;;;;;;;;;;4996348;28;20034;-47
2023/08/09 13:03:49;;;;;;;1.23;1.13;;;;;;;;;;4993050;28;20042;-46
2023/08/09 13:06:15;;;;;;;2.95;1.20;;;;;;;;;;4992884;28;20425;-47
2023/08/09 13:08:41;;;;;;;1.33;1.20;;;;;;;;;;4998185;28;20527;-46
2023/08/09 13:11:07;;;;;;;3.15;1.10;;;;;;;;;;4980912;28;20066;-48
2023/08/09 13:13:32;;;;;;;1.15;1.10;;;;;;;;;;4998166;28;20127;-48
2023/08/09 13:15:57;;;;;;;1.63;1.15;;;;;;;;;;4987726;28;20481;-46
2023/08/09 13:18:23;;;;;;;3.70;1.30;;;;;;;;;;4995988;28;20445;-51
2023/08/09 13:20:49;;;;;;;1.40;1.30;;;;;;;;;;4985672;28;20065;-47
2023/08/09 13:23:14;;;;;;;4.97;1.30;;;;;;;;;;4998049;28;20125;-48
2023/08/09 13:25:40;;;;;;;2.38;1.42;;;;;;;;;;4994006;28;20056;-46
2023/08/09 13:28:06;;;;;;;1.50;1.20;;;;;;;;;;4996845;28;20143;-47
2023/08/09 13:30:32;;;;;;;3.33;1.50;;;;;;;;;;4994939;28;20018;-47
2023/08/09 13:32:58;;;;;;;4.80;1.80;;;;;;;;;;4984321;28;20038;-47
2023/08/09 13:35:25;;;;;;;1.20;1.20;;;;;;;;;;4996644;28;20105;-45
2023/08/09 13:37:50;;;;;;;2.05;1.23;;;;;;;;;;4993070;28;20134;-48
2023/08/09 13:40:16;;;;;;;1.60;1.50;;;;;;;;;;4993790;28;20049;-46
2023/08/09 13:42:43;;;;;;;2.67;1.00;;;;;;;;;;4994564;28;20303;-46
2023/08/09 13:45:09;;;;;;;2.17;1.45;;;;;;;;;;4996567;28;20392;-47
2023/08/09 13:47:36;;;;;;;1.85;1.30;;;;;;;;;;4992977;28;20041;-48
2023/08/09 13:50:01;;;;;;;2.47;1.40;;;;;;;;;;4986154;28;20054;-46
2023/08/09 13:52:27;;;;;;;2.60;1.20;;;;;;;;;;4983639;28;20034;-48
2023/08/09 13:54:52;;;;;;;4.30;1.35;;;;;;;;;;4991460;28;20053;-47
2023/08/09 13:57:18;;;;;;;1.23;1.13;;;;;;;;;;4987426;28;20022;-47
2023/08/09 13:59:44;;;;;;;3.53;1.50;;;;;;;;;;4991729;28;20486;-47
2023/08/09 14:02:09;;;;;;;1.52;1.42;;;;;;;;;;4987090;28;20026;-47
2023/08/09 14:04:36;;;;;;;1.63;1.40;;;;;;;;;;4972553;28;20065;-46
2023/08/09 14:07:02;;;;;;;1.55;1.45;;;;;;;;;;4983107;28;20027;-49
2023/08/09 14:09:28;;;;;;;3.13;1.40;;;;;;;;;;4982150;28;20073;-48
2023/08/09 14:11:53;;;;;;;2.97;1.75;;;;;;;;;;4986777;28;20042;-46
2023/08/09 14:14:19;;;;;;;1.52;1.40;;;;;;;;;;4974873;28;20116;-47
2023/08/09 14:16:45;;;;;;;5.45;1.65;;;;;;;;;;4994913;28;20396;-48
2023/08/09 14:19:12;;;;;;;4.45;1.70;;;;;;;;;;4994899;28;20077;-46
2023/08/09 14:21:38;;;;;;;3.95;1.40;;;;;;;;;;4996406;28;20041;-51
2023/08/09 14:24:05;;;;;;;3.80;1.80;;;;;;;;;;4996075;28;20030;-46
2023/08/09 14:26:30;;;;;;;4.80;1.55;;;;;;;;;;4989317;28;20069;-50
2023/08/09 14:28:56;;;;;;;1.92;1.50;;;;;;;;;;4994058;28;20047;-48
2023/08/09 14:31:21;;;;;;;1.67;1.55;;;;;;;;;;4988112;28;20026;-47
2023/08/09 14:33:48;;;;;;;2.22;1.50;;;;;;;;;;4994046;28;20129;-49
2023/08/09 14:36:13;;;;;;;8.05;1.60;;;;;;;;;;4994898;28;20069;-48
2023/08/09 14:38:39;;;;;;;1.80;1.70;;;;;;;;;;4992605;28;20500;-47
2023/08/09 14:41:04;;;;;;;5.32;1.83;;;;;;;;;;4996551;28;20025;-47